Aeroporto :
LOGIN :

Iscrizione | Disclaimer

   EN    FR    IT 

 










Sommario :    VFR   VFR Marginale   IFR   IFR Intensivo   IFR Molto Intensivo
Visibilità : 
Base nubi : 
>= 8 km
>= 3000ft
5 / 8 km
1000 / 3000 ft
1500m / 5 km
500 / 1000 ft
800 / 1500m
200 / 500 ft
< 800m
< 200 ft
Simboli :   Temporali  Nebbia  Neve Forte  Precipitazioni Forti  Vento > 20 kt
SIGMETs :   Varie  Temporali  Ghiacco  Turbolenza  Onda orograficha  Ceneri Vulcaniche







- Altitudine del aeroporto : 55 ft
- Codice IATA : DSA
- Carte del aeroporto


EGCN - Robin Hood Doncaster Sheffield

ULTIMO METAR :
  • 270420Z 35003KT 9000 OVC011 10/09 Q1033

METARs OBSOLETI :
  • 270350Z 36003KT 9999 OVC015 10/09 Q1033
  • 270320Z 02004KT 9999 OVC015 09/09 Q1033
  • 270250Z 35003KT 9999 OVC015 09/09 Q1033
  • 270220Z 35002KT 9999 OVC015 09/09 Q1033
  • 270150Z 34003KT 9999 OVC014 09/08 Q1033

TAF AMD TAF EGCN
Valido dal 27 a 04 ore il 28 a 00 ore UTC


270424Z 2704/2724 05006KT 9999 BKN013
TEMPO 2704/2708 8000
PROB40 2704/2708 FEW013
BECMG 2708/2711 CAVOK
BECMG 2720/2723 OVC008
Nessun NOTAM noto per questo aeroporto.
2 SIGMETs conosciuti per la FIR London (EGTT) :
 
Temporali affogati
EGTT SIGMET 05 VALID 270400/270700 EGRR
EGTT LONDON FIR EMBD TS FCST WI N4850 W00800 - N5008 W00800 - N4947 W00659 - N4909 W00628 - N4908 W00629 - N4850 W00800 TOP FL380 MOV NW 20KT NC=
Turbolenza severa
EGTT SIGMET 04 VALID 270400/270800 EGRR
EGTT LONDON FIR SEV TURB FCST WI N5003 W00353 - N4944 W00627 - N5013 W00629 - N5057 W00416 - N5003 W00353 SFC/FL060 STNR WKN=



MetMap, La meteo Aeronautica in un colpo d'occhio ! - Copyright ORBIFLY Dicembre 2007 - Disclaimer

ORBIFLY MET'MAP TEAM :

Programmazione e sviluppo : Alexandra Zaïnal
Concezione e sviluppo : Baudouin d'Aumeries
Co-Programmazione e sviluppo : Marc-Olivier Méhu
Supporto tecnico e logistico : Manuel Goepfert
Aiuto per la traduzione : Arnaldo La Scala

Contatto : metmap@orbifly.com




FONTI E CREDITI :

   NOAA